createdAt,value
2022-10-01T00:02:17.307Z,11.03
2022-10-01T00:04:45.395Z,11.05
2022-10-01T00:07:15.426Z,11.05
2022-10-01T00:09:43.664Z,11.04
2022-10-01T00:12:15.873Z,11.04
2022-10-01T00:14:44.722Z,11.02
2022-10-01T00:17:13.109Z,11.01
2022-10-01T00:19:41.335Z,11.00
2022-10-01T00:22:09.741Z,10.98
2022-10-01T00:24:38.861Z,10.97
2022-10-01T00:27:07.344Z,10.95
2022-10-01T00:29:36.675Z,10.93
2022-10-01T00:32:05.158Z,10.90
2022-10-01T00:34:36.066Z,10.89
2022-10-01T00:37:05.059Z,10.86
2022-10-01T00:39:33.336Z,10.84
2022-10-01T00:42:01.514Z,10.81
2022-10-01T00:44:36.202Z,10.78
2022-10-01T00:47:33.391Z,10.76
2022-10-01T00:50:20.648Z,10.73
2022-10-01T00:52:54.361Z,10.70
2022-10-01T00:55:27.137Z,10.66
2022-10-01T00:57:55.794Z,10.63
2022-10-01T01:00:23.958Z,10.61
2022-10-01T01:02:53.156Z,10.58
2022-10-01T01:05:22.024Z,10.56
2022-10-01T01:07:52.851Z,10.53
2022-10-01T01:10:37.649Z,10.51
2022-10-01T01:13:16.698Z,10.48
2022-10-01T01:15:44.921Z,10.45
2022-10-01T01:18:30.740Z,10.41
2022-10-01T01:21:07.725Z,10.39
2022-10-01T01:23:51.323Z,10.36
2022-10-01T01:26:51.895Z,10.32
2022-10-01T01:29:29.079Z,10.28
2022-10-01T01:32:02.328Z,10.25
2022-10-01T01:34:33.634Z,10.23
2022-10-01T01:37:12.342Z,10.21
2022-10-01T01:39:47.840Z,10.18
2022-10-01T01:42:22.512Z,10.13
2022-10-01T01:44:54.579Z,10.12
2022-10-01T01:47:25.221Z,10.09
2022-10-01T01:49:53.442Z,10.07
2022-10-01T01:52:22.274Z,10.04
2022-10-01T01:54:51.882Z,10.01
2022-10-01T01:57:21.288Z,9.99
2022-10-01T01:59:50.074Z,9.96
2022-10-01T02:02:26.302Z,9.95
2022-10-01T02:05:02.207Z,9.94
2022-10-01T02:07:54.181Z,9.92
2022-10-01T02:10:25.383Z,9.89
2022-10-01T02:13:35.428Z,9.85
2022-10-01T02:16:25.903Z,9.82
2022-10-01T02:19:15.239Z,9.79
2022-10-01T02:21:54.736Z,9.75
2022-10-01T02:24:25.890Z,9.72
2022-10-01T02:26:56.979Z,9.70
2022-10-01T02:29:26.324Z,9.66
2022-10-01T02:31:56.650Z,9.64
2022-10-01T02:34:28.716Z,9.61
2022-10-01T02:37:01.190Z,9.60
2022-10-01T02:39:31.924Z,9.58
2022-10-01T02:42:02.866Z,9.56
2022-10-01T02:44:40.313Z,9.53
2022-10-01T02:47:24.046Z,9.51
2022-10-01T02:49:53.499Z,9.49
2022-10-01T02:53:11.269Z,9.46
2022-10-01T02:55:41.762Z,9.42
2022-10-01T02:58:10.039Z,9.40
2022-10-01T03:00:38.186Z,9.37
2022-10-01T03:03:06.577Z,9.34
2022-10-01T03:05:34.770Z,9.32
2022-10-01T03:08:03.178Z,9.30
2022-10-01T03:10:31.425Z,9.28
2022-10-01T03:13:01.763Z,9.26
2022-10-01T03:15:30.103Z,9.23
2022-10-01T03:17:58.482Z,9.23
2022-10-01T03:20:27.067Z,9.22
2022-10-01T03:22:55.449Z,9.21
2022-10-01T03:25:23.850Z,9.20
2022-10-01T03:27:52.788Z,9.20
2022-10-01T03:30:21.705Z,9.20
2022-10-01T03:32:50.006Z,9.19
2022-10-01T03:35:18.333Z,9.19
2022-10-01T03:37:47.873Z,9.19
2022-10-01T03:40:16.248Z,9.19
2022-10-01T03:42:44.527Z,9.19
2022-10-01T03:45:13.148Z,9.19
2022-10-01T03:47:41.486Z,9.18
2022-10-01T03:50:09.670Z,9.17
2022-10-01T03:52:37.897Z,9.16
2022-10-01T03:55:06.836Z,9.15
2022-10-01T03:57:35.003Z,9.13
2022-10-01T04:00:04.509Z,9.12
2022-10-01T04:02:40.134Z,9.10
2022-10-01T04:05:09.055Z,9.09
2022-10-01T04:07:37.332Z,9.08
2022-10-01T04:10:06.284Z,9.07
2022-10-01T04:12:34.905Z,9.06
2022-10-01T04:15:03.181Z,9.05
2022-10-01T04:17:32.281Z,9.04
2022-10-01T04:20:00.962Z,9.03
2022-10-01T04:22:29.324Z,9.02
2022-10-01T04:24:57.709Z,9.01
2022-10-01T04:27:26.423Z,9.02
2022-10-01T04:29:54.620Z,9.02
2022-10-01T04:32:22.937Z,9.01
2022-10-01T04:34:54.309Z,9.01
2022-10-01T04:37:23.153Z,9.00
2022-10-01T04:39:51.337Z,9.00
2022-10-01T04:42:20.160Z,9.02
2022-10-01T04:44:48.417Z,9.04
2022-10-01T04:47:16.692Z,9.06
2022-10-01T04:49:44.930Z,9.07
2022-10-01T04:52:13.141Z,9.09
2022-10-01T04:54:41.730Z,9.13
2022-10-01T04:57:10.003Z,9.18
2022-10-01T04:59:38.178Z,9.23
2022-10-01T05:02:06.481Z,9.29
2022-10-01T05:04:35.039Z,9.34
2022-10-01T05:07:03.238Z,9.40
2022-10-01T05:09:33.948Z,9.47
2022-10-01T05:12:02.529Z,9.55
2022-10-01T05:14:31.422Z,9.62
2022-10-01T05:16:59.751Z,9.70
2022-10-01T05:19:29.458Z,9.78
2022-10-01T05:21:57.686Z,9.86
2022-10-01T05:24:26.214Z,9.95
2022-10-01T05:26:54.446Z,10.02
2022-10-01T05:29:23.158Z,10.08
2022-10-01T05:31:51.911Z,10.16
2022-10-01T05:34:20.201Z,10.24
2022-10-01T05:36:48.475Z,10.34
2022-10-01T05:39:16.773Z,10.45
2022-10-01T05:41:45.180Z,10.58
2022-10-01T05:44:13.639Z,10.72
2022-10-01T05:46:43.754Z,10.85
2022-10-01T05:49:11.929Z,11.01
2022-10-01T05:51:40.189Z,11.20
2022-10-01T05:54:08.670Z,11.42
2022-10-01T05:56:37.160Z,11.66
2022-10-01T05:59:06.209Z,11.90
2022-10-01T06:01:35.126Z,12.15
2022-10-01T06:04:03.929Z,13.08
2022-10-01T06:06:32.349Z,14.42
2022-10-01T06:09:00.620Z,15.58
2022-10-01T06:11:29.264Z,16.65
2022-10-01T06:13:57.543Z,18.22
2022-10-01T06:16:25.982Z,19.99
2022-10-01T06:18:57.600Z,21.55
2022-10-01T06:21:27.621Z,23.05
2022-10-01T06:23:55.866Z,24.44
2022-10-01T06:26:24.601Z,25.83
2022-10-01T06:28:52.911Z,27.27
2022-10-01T06:31:21.598Z,28.53
2022-10-01T06:33:49.847Z,29.38
2022-10-01T06:36:18.323Z,30.30
2022-10-01T06:38:49.725Z,30.81
2022-10-01T06:41:18.710Z,30.73
2022-10-01T06:43:48.809Z,30.61
2022-10-01T06:46:17.076Z,30.56
2022-10-01T06:48:45.566Z,30.91
2022-10-01T06:51:13.637Z,31.30
2022-10-01T06:53:42.084Z,31.43
2022-10-01T06:56:10.311Z,31.38
2022-10-01T06:58:38.588Z,31.37
2022-10-01T07:01:06.766Z,31.29
2022-10-01T07:03:36.074Z,31.19
2022-10-01T07:06:05.604Z,30.91
2022-10-01T07:08:33.848Z,30.86
2022-10-01T07:11:02.917Z,31.25
2022-10-01T07:13:31.682Z,31.52
2022-10-01T07:15:59.713Z,31.68
2022-10-01T07:18:27.869Z,31.73
2022-10-01T07:20:59.273Z,31.69
2022-10-01T07:23:27.396Z,31.66
2022-10-01T07:25:55.697Z,31.73
2022-10-01T07:28:25.847Z,31.74
2022-10-01T07:30:58.167Z,31.81
2022-10-01T07:33:26.546Z,32.21
2022-10-01T07:35:55.193Z,32.61
2022-10-01T07:38:23.201Z,32.97
2022-10-01T07:40:59.076Z,33.45
2022-10-01T07:43:27.251Z,33.77
2022-10-01T07:45:58.368Z,33.85
2022-10-01T07:48:27.608Z,34.24
2022-10-01T07:50:57.856Z,35.15
2022-10-01T07:53:26.381Z,36.43
2022-10-01T07:55:54.568Z,37.74
2022-10-01T07:58:24.259Z,38.77
2022-10-01T08:00:58.236Z,39.95
2022-10-01T08:03:27.278Z,41.04
2022-10-01T08:05:55.761Z,41.05
2022-10-01T08:08:24.030Z,41.01
2022-10-01T08:10:52.322Z,40.86
2022-10-01T08:13:24.880Z,39.85
2022-10-01T08:15:55.905Z,38.46
2022-10-01T08:18:27.064Z,37.25
2022-10-01T08:20:55.441Z,36.19
2022-10-01T08:23:31.418Z,35.49
2022-10-01T08:26:07.640Z,35.55
2022-10-01T08:28:36.213Z,36.85
2022-10-01T08:31:10.121Z,38.44
2022-10-01T08:33:39.020Z,39.95
2022-10-01T08:36:08.568Z,41.03
2022-10-01T08:38:37.667Z,41.84
2022-10-01T08:41:26.572Z,42.08
2022-10-01T08:43:54.951Z,41.85
2022-10-01T08:46:27.939Z,41.48
2022-10-01T08:49:28.188Z,40.66
2022-10-01T08:52:06.441Z,39.33
2022-10-01T08:54:41.408Z,37.87
2022-10-01T08:57:19.723Z,36.30
2022-10-01T08:59:56.830Z,34.90
2022-10-01T09:02:26.397Z,33.60
2022-10-01T09:05:02.155Z,32.37
2022-10-01T09:07:48.565Z,31.24
2022-10-01T09:10:36.095Z,30.25
2022-10-01T09:13:34.902Z,29.57
2022-10-01T09:16:12.890Z,28.77
2022-10-01T09:18:50.960Z,28.21
2022-10-01T09:21:24.966Z,27.79
2022-10-01T09:24:22.267Z,27.39
2022-10-01T09:26:50.338Z,26.95
2022-10-01T09:29:27.553Z,26.64
2022-10-01T09:31:57.863Z,26.25
2022-10-01T09:34:38.413Z,25.91
2022-10-01T09:37:26.461Z,25.59
2022-10-01T09:40:12.863Z,25.32
2022-10-01T09:42:41.235Z,25.05
2022-10-01T09:45:15.213Z,24.87
2022-10-01T09:47:51.509Z,24.69
2022-10-01T09:50:28.489Z,24.54
2022-10-01T09:53:00.659Z,24.37
2022-10-01T09:55:54.451Z,24.28
2022-10-01T09:58:27.800Z,24.22
2022-10-01T10:00:57.210Z,24.15
2022-10-01T10:03:30.778Z,24.12
2022-10-01T10:06:00.419Z,24.14
2022-10-01T10:08:40.400Z,24.25
2022-10-01T10:11:20.664Z,24.40
2022-10-01T10:14:00.223Z,24.66
2022-10-01T10:16:38.053Z,24.96
2022-10-01T10:19:27.542Z,25.26
2022-10-01T10:21:59.730Z,25.59
2022-10-01T10:24:33.728Z,25.81
2022-10-01T10:27:04.869Z,25.96
2022-10-01T10:29:37.649Z,26.12
2022-10-01T10:32:28.250Z,26.31
2022-10-01T10:35:05.309Z,26.52
2022-10-01T10:37:37.980Z,26.71
2022-10-01T10:40:10.630Z,26.86
2022-10-01T10:42:39.021Z,26.91
2022-10-01T10:45:17.711Z,26.95
2022-10-01T10:47:49.166Z,27.00
2022-10-01T10:50:39.461Z,27.07
2022-10-01T10:53:22.774Z,27.17
2022-10-01T10:56:02.717Z,27.20
2022-10-01T10:58:39.904Z,27.19
2022-10-01T11:01:20.418Z,27.19
2022-10-01T11:03:53.464Z,27.16
2022-10-01T11:06:22.344Z,27.16
2022-10-01T11:09:00.627Z,27.19
2022-10-01T11:11:32.347Z,27.29
2022-10-01T11:14:08.015Z,27.34
2022-10-01T11:17:05.942Z,27.40
2022-10-01T11:19:43.222Z,27.45
2022-10-01T11:22:53.893Z,27.51
2022-10-01T11:25:48.279Z,27.64
2022-10-01T11:28:34.647Z,27.77
2022-10-01T11:31:29.663Z,27.94
2022-10-01T11:34:00.719Z,28.04
2022-10-01T11:36:36.270Z,28.09
2022-10-01T11:39:27.238Z,28.10
2022-10-01T11:42:19.586Z,28.10
2022-10-01T11:45:03.390Z,28.07
2022-10-01T11:47:42.050Z,27.97
2022-10-01T11:50:25.379Z,27.95
2022-10-01T11:53:33.487Z,27.93
2022-10-01T11:56:23.364Z,27.79
2022-10-01T11:59:05.882Z,27.73
2022-10-01T12:02:08.433Z,27.75
2022-10-01T12:04:48.222Z,27.72
2022-10-01T12:07:20.473Z,27.73
2022-10-01T12:10:07.599Z,27.64
2022-10-01T12:12:45.105Z,27.60
2022-10-01T12:15:44.923Z,27.66
2022-10-01T12:18:33.681Z,27.86
2022-10-01T12:21:07.749Z,28.32
2022-10-01T12:23:53.508Z,28.92
2022-10-01T12:26:44.670Z,29.58
2022-10-01T12:29:31.891Z,30.14
2022-10-01T12:32:22.088Z,30.68
2022-10-01T12:35:35.516Z,30.95
2022-10-01T12:38:19.920Z,31.25
2022-10-01T12:41:09.098Z,31.50
2022-10-01T12:44:13.786Z,31.72
2022-10-01T12:46:46.707Z,31.79
2022-10-01T12:49:30.269Z,31.79
2022-10-01T12:52:38.195Z,31.43
2022-10-01T12:55:07.215Z,30.98
2022-10-01T12:57:41.123Z,30.68
2022-10-01T13:00:32.072Z,30.38
2022-10-01T13:03:31.145Z,30.10
2022-10-01T13:06:36.797Z,29.77
2022-10-01T13:09:56.439Z,29.45
2022-10-01T13:12:39.977Z,28.99
2022-10-01T13:15:20.296Z,28.67
2022-10-01T13:17:58.451Z,28.35
2022-10-01T13:20:54.744Z,28.08
2022-10-01T13:23:39.540Z,27.88
2022-10-01T13:26:48.782Z,27.71
2022-10-01T13:29:54.226Z,27.45
2022-10-01T13:32:33.459Z,27.20
2022-10-01T13:35:22.113Z,27.07
2022-10-01T13:37:50.433Z,26.87
2022-10-01T13:40:35.585Z,26.60
2022-10-01T13:43:20.225Z,26.31
2022-10-01T13:45:54.317Z,26.05
2022-10-01T13:48:34.802Z,25.86
2022-10-01T13:51:09.270Z,25.69
2022-10-01T13:53:50.196Z,25.54
2022-10-01T13:56:35.284Z,25.40
2022-10-01T13:59:33.659Z,25.30
2022-10-01T14:02:03.265Z,25.25
2022-10-01T14:04:37.885Z,25.23
2022-10-01T14:07:17.934Z,25.07
2022-10-01T14:09:50.536Z,24.93
2022-10-01T14:12:48.322Z,24.79
2022-10-01T14:15:36.359Z,24.66
2022-10-01T14:18:09.923Z,24.51
2022-10-01T14:21:03.081Z,24.38
2022-10-01T14:24:26.674Z,24.22
2022-10-01T14:27:04.866Z,24.06
2022-10-01T14:29:38.898Z,23.92
2022-10-01T14:32:15.699Z,23.81
2022-10-01T14:34:49.866Z,23.69
2022-10-01T14:37:20.002Z,23.58
2022-10-01T14:40:01.303Z,23.46
2022-10-01T14:42:29.444Z,23.34
2022-10-01T14:44:57.423Z,23.22
2022-10-01T14:47:28.046Z,23.10
2022-10-01T14:49:56.434Z,22.98
2022-10-01T14:52:28.433Z,22.84
2022-10-01T14:54:56.785Z,22.69
2022-10-01T14:57:29.658Z,22.57
2022-10-01T15:00:01.522Z,22.46
2022-10-01T15:02:29.696Z,22.37
2022-10-01T15:04:58.377Z,22.27
2022-10-01T15:07:33.436Z,22.16
2022-10-01T15:10:17.888Z,22.06
2022-10-01T15:12:49.857Z,21.95
2022-10-01T15:15:31.359Z,21.84
2022-10-01T15:18:04.818Z,21.73
2022-10-01T15:20:35.550Z,21.63
2022-10-01T15:23:05.976Z,21.52
2022-10-01T15:25:34.224Z,21.43
2022-10-01T15:28:13.073Z,21.34
2022-10-01T15:30:46.864Z,21.23
2022-10-01T15:33:29.182Z,21.12
2022-10-01T15:36:04.328Z,20.99
2022-10-01T15:38:33.748Z,20.87
2022-10-01T15:41:26.872Z,20.77
2022-10-01T15:43:52.502Z,20.65
2022-10-01T15:46:33.038Z,20.54
2022-10-01T15:49:18.243Z,20.43
2022-10-01T15:52:22.876Z,20.33
2022-10-01T15:54:59.933Z,20.25
2022-10-01T15:57:33.564Z,20.17
2022-10-01T16:00:01.936Z,20.11
2022-10-01T16:02:33.287Z,20.04
2022-10-01T16:05:10.178Z,19.98
2022-10-01T16:07:40.416Z,19.91
2022-10-01T16:10:32.741Z,19.87
2022-10-01T16:13:20.670Z,19.83
2022-10-01T16:16:24.748Z,19.79
2022-10-01T16:18:56.647Z,19.75
2022-10-01T16:21:24.917Z,19.72
2022-10-01T16:23:54.421Z,19.70
2022-10-01T16:26:31.256Z,19.68
2022-10-01T16:29:06.460Z,19.66
2022-10-01T16:31:37.148Z,19.63
2022-10-01T16:34:14.152Z,19.58
2022-10-01T16:36:42.738Z,19.54
2022-10-01T16:39:13.790Z,19.48
2022-10-01T16:41:45.203Z,19.40
2022-10-01T16:44:14.451Z,19.28
2022-10-01T16:46:42.877Z,19.17
2022-10-01T16:49:14.172Z,19.04
2022-10-01T16:51:45.872Z,18.92
2022-10-01T16:54:24.287Z,18.80
2022-10-01T16:56:55.185Z,18.63
2022-10-01T16:59:24.932Z,18.48
2022-10-01T17:01:55.995Z,18.39
2022-10-01T17:04:29.300Z,18.27
2022-10-01T17:07:00.048Z,18.16
2022-10-01T17:09:28.428Z,18.07
2022-10-01T17:11:59.171Z,17.96
2022-10-01T17:14:27.952Z,17.86
2022-10-01T17:16:56.026Z,17.75
2022-10-01T17:19:24.989Z,17.63
2022-10-01T17:21:53.396Z,17.42
2022-10-01T17:24:21.835Z,17.22
2022-10-01T17:26:50.157Z,17.10
2022-10-01T17:29:18.475Z,16.99
2022-10-01T17:31:53.439Z,16.90
2022-10-01T17:34:22.178Z,16.83
2022-10-01T17:36:50.447Z,16.76
2022-10-01T17:39:18.650Z,16.67
2022-10-01T17:41:47.188Z,16.58
2022-10-01T17:44:16.078Z,16.49
2022-10-01T17:46:45.275Z,16.42
2022-10-01T17:49:14.679Z,16.33
2022-10-01T17:51:43.068Z,16.22
2022-10-01T17:54:11.474Z,16.14
2022-10-01T17:56:42.194Z,16.08
2022-10-01T17:59:10.654Z,16.02
2022-10-01T18:01:40.298Z,15.96
2022-10-01T18:04:12.634Z,15.92
2022-10-01T18:06:41.320Z,15.87
2022-10-01T18:09:09.704Z,15.80
2022-10-01T18:11:38.487Z,15.72
2022-10-01T18:14:07.891Z,15.64
2022-10-01T18:16:37.452Z,15.56
2022-10-01T18:19:52.281Z,15.52
2022-10-01T18:21:54.909Z,15.48
2022-10-01T18:24:23.725Z,15.45
2022-10-01T18:26:52.109Z,15.42
2022-10-01T18:29:26.154Z,15.39
2022-10-01T18:32:00.917Z,15.36
2022-10-01T18:34:38.516Z,15.35
2022-10-01T18:37:50.614Z,15.35
2022-10-01T18:40:20.668Z,15.34
2022-10-01T18:43:12.706Z,15.32
2022-10-01T18:45:59.547Z,15.31
2022-10-01T18:48:52.093Z,15.30
2022-10-01T18:51:41.331Z,15.29
2022-10-01T18:54:34.611Z,15.27
2022-10-01T18:57:24.343Z,15.24
2022-10-01T19:00:12.943Z,15.22
2022-10-01T19:03:02.505Z,15.19
2022-10-01T19:05:58.392Z,15.16
2022-10-01T19:08:54.218Z,15.13
2022-10-01T19:11:28.969Z,15.08
2022-10-01T19:14:42.006Z,15.04
2022-10-01T19:17:28.816Z,14.99
2022-10-01T19:20:21.158Z,14.94
2022-10-01T19:23:05.530Z,14.90
2022-10-01T19:25:40.733Z,14.87
2022-10-01T19:28:44.729Z,14.85
2022-10-01T19:31:39.238Z,14.83
2022-10-01T19:34:18.920Z,14.80
2022-10-01T19:36:55.164Z,14.78
2022-10-01T19:39:28.289Z,14.76
2022-10-01T19:42:05.643Z,14.75
2022-10-01T19:44:51.648Z,14.72
2022-10-01T19:47:51.850Z,14.70
2022-10-01T19:50:28.232Z,14.67
2022-10-01T19:52:58.898Z,14.65
2022-10-01T19:55:34.016Z,14.63
2022-10-01T19:58:18.695Z,14.60
2022-10-01T20:00:56.114Z,14.57
2022-10-01T20:03:57.546Z,14.55
2022-10-01T20:06:29.874Z,14.52
2022-10-01T20:09:03.939Z,14.51
2022-10-01T20:11:44.758Z,14.49
2022-10-01T20:14:57.684Z,14.47
2022-10-01T20:17:59.442Z,14.44
2022-10-01T20:20:36.021Z,14.42
2022-10-01T20:23:11.357Z,14.40
2022-10-01T20:25:57.965Z,14.38
2022-10-01T20:29:05.460Z,14.36
2022-10-01T20:31:54.549Z,14.34
2022-10-01T20:34:32.323Z,14.33
2022-10-01T20:37:35.245Z,14.32
2022-10-01T20:40:28.239Z,14.32
2022-10-01T20:43:09.551Z,14.30
2022-10-01T20:45:40.539Z,14.31
2022-10-01T20:48:24.127Z,14.30
2022-10-01T20:50:55.570Z,14.30
2022-10-01T20:53:39.002Z,14.29
2022-10-01T20:56:38.501Z,14.28
2022-10-01T20:59:17.456Z,14.27
2022-10-01T21:02:03.007Z,14.26
2022-10-01T21:04:40.596Z,14.25
2022-10-01T21:07:17.118Z,14.24
2022-10-01T21:09:50.728Z,14.23
2022-10-01T21:12:27.163Z,14.23
2022-10-01T21:14:57.441Z,14.23
2022-10-01T21:17:46.952Z,14.24
2022-10-01T21:20:35.210Z,14.24
2022-10-01T21:23:18.430Z,14.24
2022-10-01T21:25:59.408Z,14.24
2022-10-01T21:28:55.002Z,14.24
2022-10-01T21:31:49.459Z,14.22
2022-10-01T21:34:26.723Z,14.21
2022-10-01T21:36:58.052Z,14.19
2022-10-01T21:40:04.114Z,14.18
2022-10-01T21:42:44.470Z,14.17
2022-10-01T21:45:28.829Z,14.15
2022-10-01T21:48:12.569Z,14.14
2022-10-01T21:50:54.565Z,14.12
2022-10-01T21:54:07.653Z,14.11
2022-10-01T21:57:02.500Z,14.09
2022-10-01T22:00:13.369Z,14.06
2022-10-01T22:02:47.688Z,14.04
2022-10-01T22:05:29.421Z,14.03
2022-10-01T22:08:10.473Z,14.02
2022-10-01T22:10:44.363Z,13.99
2022-10-01T22:13:35.374Z,13.97
2022-10-01T22:16:10.385Z,13.94
2022-10-01T22:18:47.461Z,13.91
2022-10-01T22:21:47.117Z,13.87
2022-10-01T22:24:20.809Z,13.83
2022-10-01T22:27:11.611Z,13.79
2022-10-01T22:29:49.009Z,13.76
2022-10-01T22:32:21.171Z,13.72
2022-10-01T22:34:58.254Z,13.68
2022-10-01T22:37:34.226Z,13.66
2022-10-01T22:40:12.016Z,13.62
2022-10-01T22:42:46.844Z,13.58
2022-10-01T22:45:18.599Z,13.55
2022-10-01T22:48:07.678Z,13.52
2022-10-01T22:51:13.932Z,13.49
2022-10-01T22:53:57.159Z,13.45
2022-10-01T22:56:36.354Z,13.42
2022-10-01T22:59:19.732Z,13.40
2022-10-01T23:02:06.609Z,13.37
2022-10-01T23:04:51.324Z,13.36
2022-10-01T23:07:51.837Z,13.35
2022-10-01T23:10:41.515Z,13.35
2022-10-01T23:13:30.273Z,13.35
2022-10-01T23:16:04.738Z,13.35
2022-10-01T23:18:40.343Z,13.36
2022-10-01T23:21:26.248Z,13.37
2022-10-01T23:24:06.589Z,13.38
2022-10-01T23:27:04.050Z,13.38
2022-10-01T23:30:10.217Z,13.37
2022-10-01T23:32:44.750Z,13.37
2022-10-01T23:35:51.311Z,13.36
2022-10-01T23:38:45.292Z,13.36
2022-10-01T23:41:25.500Z,13.35
2022-10-01T23:44:08.158Z,13.34
2022-10-01T23:46:39.936Z,13.34
2022-10-01T23:49:15.840Z,13.33
2022-10-01T23:51:52.445Z,13.33
2022-10-01T23:54:30.198Z,13.33
2022-10-01T23:57:14.118Z,13.32
2022-10-01T23:59:52.829Z,13.33
